sensor_id;sensor_type;location;lat;lon;timestamp;pressure;altitude;pressure_sealevel;temperature;humidity
13934;BME280;7039;52.168;9.866;2023-10-09T00:01:18;100987.50;;;14.19;77.37
13934;BME280;7039;52.168;9.866;2023-10-09T00:03:45;100975.66;;;14.28;77.75
13934;BME280;7039;52.168;9.866;2023-10-09T00:06:17;100970.63;;;14.39;76.44
13934;BME280;7039;52.168;9.866;2023-10-09T00:08:50;100974.50;;;14.48;75.51
13934;BME280;7039;52.168;9.866;2023-10-09T00:11:20;100970.84;;;14.50;75.93
13934;BME280;7039;52.168;9.866;2023-10-09T00:13:51;100972.63;;;14.50;75.88
13934;BME280;7039;52.168;9.866;2023-10-09T00:16:23;100977.31;;;14.60;75.94
13934;BME280;7039;52.168;9.866;2023-10-09T00:18:58;100965.78;;;14.63;76.02
13934;BME280;7039;52.168;9.866;2023-10-09T00:21:38;100963.63;;;14.70;75.88
13934;BME280;7039;52.168;9.866;2023-10-09T00:24:06;100937.44;;;14.68;76.82
13934;BME280;7039;52.168;9.866;2023-10-09T00:26:39;100914.13;;;14.33;77.53
13934;BME280;7039;52.168;9.866;2023-10-09T00:29:09;100888.69;;;13.73;79.14
13934;BME280;7039;52.168;9.866;2023-10-09T00:31:40;100890.31;;;13.60;79.96
13934;BME280;7039;52.168;9.866;2023-10-09T00:34:15;100893.34;;;13.68;80.71
13934;BME280;7039;52.168;9.866;2023-10-09T00:36:45;100888.19;;;13.67;81.77
13934;BME280;7039;52.168;9.866;2023-10-09T00:39:17;100893.25;;;14.16;80.30
13934;BME280;7039;52.168;9.866;2023-10-09T00:41:58;100879.06;;;14.34;79.92
13934;BME280;7039;52.168;9.866;2023-10-09T00:44:26;100874.94;;;14.00;80.83
13934;BME280;7039;52.168;9.866;2023-10-09T00:47:03;100897.81;;;14.12;80.68
13934;BME280;7039;52.168;9.866;2023-10-09T00:49:36;100892.28;;;14.03;82.03
13934;BME280;7039;52.168;9.866;2023-10-09T00:52:06;100883.75;;;13.99;82.59
13934;BME280;7039;52.168;9.866;2023-10-09T00:54:44;100862.31;;;13.76;82.30
13934;BME280;7039;52.168;9.866;2023-10-09T00:57:17;100854.50;;;13.91;81.91
13934;BME280;7039;52.168;9.866;2023-10-09T00:59:52;100853.56;;;13.92;82.15
13934;BME280;7039;52.168;9.866;2023-10-09T01:02:25;100857.13;;;13.91;82.00
13934;BME280;7039;52.168;9.866;2023-10-09T01:05:03;100855.28;;;14.07;81.77
13934;BME280;7039;52.168;9.866;2023-10-09T01:07:45;100844.84;;;14.22;80.98
13934;BME280;7039;52.168;9.866;2023-10-09T01:10:13;100836.22;;;14.34;80.98
13934;BME280;7039;52.168;9.866;2023-10-09T01:12:42;100824.44;;;14.41;80.68
13934;BME280;7039;52.168;9.866;2023-10-09T01:15:09;100803.44;;;13.82;82.68
13934;BME280;7039;52.168;9.866;2023-10-09T01:17:43;100817.25;;;14.00;82.33
13934;BME280;7039;52.168;9.866;2023-10-09T01:20:11;100827.59;;;14.17;82.08
13934;BME280;7039;52.168;9.866;2023-10-09T01:22:42;100849.63;;;14.29;81.83
13934;BME280;7039;52.168;9.866;2023-10-09T01:25:10;100843.22;;;14.19;81.79
13934;BME280;7039;52.168;9.866;2023-10-09T01:27:37;100855.78;;;14.28;81.71
13934;BME280;7039;52.168;9.866;2023-10-09T01:30:06;100856.59;;;14.45;81.57
13934;BME280;7039;52.168;9.866;2023-10-09T01:32:38;100858.25;;;14.46;81.70
13934;BME280;7039;52.168;9.866;2023-10-09T01:35:06;100854.31;;;14.53;81.76
13934;BME280;7039;52.168;9.866;2023-10-09T01:37:45;100858.00;;;14.50;81.70
13934;BME280;7039;52.168;9.866;2023-10-09T01:40:16;100845.50;;;14.25;83.16
13934;BME280;7039;52.168;9.866;2023-10-09T01:42:50;100844.03;;;14.35;82.33
13934;BME280;7039;52.168;9.866;2023-10-09T01:45:17;100844.56;;;14.26;82.70
13934;BME280;7039;52.168;9.866;2023-10-09T01:47:52;100845.44;;;14.55;82.03
13934;BME280;7039;52.168;9.866;2023-10-09T01:50:19;100846.78;;;14.63;81.50
13934;BME280;7039;52.168;9.866;2023-10-09T01:52:47;100848.56;;;14.62;81.92
13934;BME280;7039;52.168;9.866;2023-10-09T01:55:15;100848.88;;;14.41;82.71
13934;BME280;7039;52.168;9.866;2023-10-09T01:57:53;100849.91;;;14.53;82.51
13934;BME280;7039;52.168;9.866;2023-10-09T02:00:23;100848.88;;;14.41;84.01
13934;BME280;7039;52.168;9.866;2023-10-09T02:02:54;100842.25;;;14.36;84.35
13934;BME280;7039;52.168;9.866;2023-10-09T02:05:20;100837.28;;;14.46;83.85
13934;BME280;7039;52.168;9.866;2023-10-09T02:07:52;100826.72;;;14.61;83.50
13934;BME280;7039;52.168;9.866;2023-10-09T02:10:20;100815.63;;;14.71;83.35
13934;BME280;7039;52.168;9.866;2023-10-09T02:12:51;100805.22;;;14.69;84.14
13934;BME280;7039;52.168;9.866;2023-10-09T02:15:19;100801.56;;;14.29;86.50
13934;BME280;7039;52.168;9.866;2023-10-09T02:18:05;100790.41;;;14.25;86.51
13934;BME280;7039;52.168;9.866;2023-10-09T02:20:42;100787.41;;;14.46;85.68
13934;BME280;7039;52.168;9.866;2023-10-09T02:23:10;100789.66;;;14.52;85.33
13934;BME280;7039;52.168;9.866;2023-10-09T02:25:40;100791.75;;;14.61;85.47
13934;BME280;7039;52.168;9.866;2023-10-09T02:28:08;100782.91;;;14.62;86.02
13934;BME280;7039;52.168;9.866;2023-10-09T02:30:42;100766.97;;;14.51;86.61
13934;BME280;7039;52.168;9.866;2023-10-09T02:33:13;100756.19;;;14.55;86.73
13934;BME280;7039;52.168;9.866;2023-10-09T02:35:43;100754.44;;;14.56;87.00
13934;BME280;7039;52.168;9.866;2023-10-09T02:38:10;100753.75;;;14.52;86.87
13934;BME280;7039;52.168;9.866;2023-10-09T02:40:41;100743.75;;;14.59;86.71
13934;BME280;7039;52.168;9.866;2023-10-09T02:43:26;100731.38;;;14.61;86.96
13934;BME280;7039;52.168;9.866;2023-10-09T02:45:53;100727.69;;;14.49;87.24
13934;BME280;7039;52.168;9.866;2023-10-09T02:48:19;100727.41;;;14.39;88.10
13934;BME280;7039;52.168;9.866;2023-10-09T02:50:50;100717.19;;;14.35;88.74
13934;BME280;7039;52.168;9.866;2023-10-09T02:53:16;100720.56;;;14.37;89.26
13934;BME280;7039;52.168;9.866;2023-10-09T02:55:56;100707.69;;;14.19;89.48
13934;BME280;7039;52.168;9.866;2023-10-09T02:58:37;100702.97;;;13.82;91.12
13934;BME280;7039;52.168;9.866;2023-10-09T03:01:09;100710.66;;;13.99;91.87
13934;BME280;7039;52.168;9.866;2023-10-09T03:03:36;100711.94;;;13.92;91.98
13934;BME280;7039;52.168;9.866;2023-10-09T03:06:03;100703.44;;;13.88;93.46
13934;BME280;7039;52.168;9.866;2023-10-09T03:08:36;100708.50;;;14.20;91.75
13934;BME280;7039;52.168;9.866;2023-10-09T03:11:04;100712.41;;;14.41;90.92
13934;BME280;7039;52.168;9.866;2023-10-09T03:13:31;100707.63;;;14.48;90.13
13934;BME280;7039;52.168;9.866;2023-10-09T03:15:58;100709.13;;;14.67;89.66
13934;BME280;7039;52.168;9.866;2023-10-09T03:18:27;100712.25;;;14.30;91.25
13934;BME280;7039;52.168;9.866;2023-10-09T03:20:53;100692.66;;;14.07;94.44
13934;BME280;7039;52.168;9.866;2023-10-09T03:23:21;100692.03;;;14.18;95.02
13934;BME280;7039;52.168;9.866;2023-10-09T03:25:48;100687.13;;;14.12;96.05
13934;BME280;7039;52.168;9.866;2023-10-09T03:28:16;100689.19;;;14.21;95.62
13934;BME280;7039;52.168;9.866;2023-10-09T03:30:42;100692.78;;;14.20;97.04
13934;BME280;7039;52.168;9.866;2023-10-09T03:33:13;100692.75;;;14.34;97.06
13934;BME280;7039;52.168;9.866;2023-10-09T03:35:40;100678.31;;;14.41;96.67
13934;BME280;7039;52.168;9.866;2023-10-09T03:38:06;100673.75;;;14.31;97.32
13934;BME280;7039;52.168;9.866;2023-10-09T03:40:37;100659.31;;;14.38;97.61
13934;BME280;7039;52.168;9.866;2023-10-09T03:43:07;100652.56;;;14.34;98.40
13934;BME280;7039;52.168;9.866;2023-10-09T03:45:36;100647.25;;;14.48;98.88
13934;BME280;7039;52.168;9.866;2023-10-09T03:48:05;100638.69;;;14.32;99.18
13934;BME280;7039;52.168;9.866;2023-10-09T03:50:40;100647.25;;;14.48;99.33
13934;BME280;7039;52.168;9.866;2023-10-09T03:53:08;100643.72;;;14.35;100.00
13934;BME280;7039;52.168;9.866;2023-10-09T03:55:38;100657.00;;;14.46;100.00
13934;BME280;7039;52.168;9.866;2023-10-09T03:58:05;100651.88;;;14.59;98.24
13934;BME280;7039;52.168;9.866;2023-10-09T04:00:32;100645.47;;;14.49;99.46
13934;BME280;7039;52.168;9.866;2023-10-09T04:03:07;100634.88;;;14.50;100.00
13934;BME280;7039;52.168;9.866;2023-10-09T04:05:37;100642.50;;;14.40;100.00
13934;BME280;7039;52.168;9.866;2023-10-09T04:08:06;100641.09;;;14.49;100.00
13934;BME280;7039;52.168;9.866;2023-10-09T04:10:39;100647.09;;;14.51;100.00
13934;BME280;7039;52.168;9.866;2023-10-09T04:13:18;100633.78;;;14.54;100.00
13934;BME280;7039;52.168;9.866;2023-10-09T04:15:49;100643.69;;;14.64;100.00
13934;BME280;7039;52.168;9.866;2023-10-09T04:18:20;100653.25;;;14.65;100.00
13934;BME280;7039;52.168;9.866;2023-10-09T04:20:53;100663.72;;;14.79;100.00
13934;BME280;7039;52.168;9.866;2023-10-09T04:23:44;100662.28;;;14.88;100.00
13934;BME280;7039;52.168;9.866;2023-10-09T04:26:25;100662.00;;;14.92;100.00
13934;BME280;7039;52.168;9.866;2023-10-09T04:28:51;100655.53;;;14.83;100.00
13934;BME280;7039;52.168;9.866;2023-10-09T04:31:19;100668.84;;;14.80;100.00
13934;BME280;7039;52.168;9.866;2023-10-09T04:33:48;100666.97;;;14.82;100.00
13934;BME280;7039;52.168;9.866;2023-10-09T04:36:44;100673.41;;;14.91;100.00
13934;BME280;7039;52.168;9.866;2023-10-09T04:39:15;100676.78;;;14.93;100.00
13934;BME280;7039;52.168;9.866;2023-10-09T04:42:00;100685.03;;;15.01;100.00
13934;BME280;7039;52.168;9.866;2023-10-09T04:44:52;100683.38;;;14.86;100.00
13934;BME280;7039;52.168;9.866;2023-10-09T04:47:41;100688.13;;;14.94;100.00
13934;BME280;7039;52.168;9.866;2023-10-09T04:50:24;100689.03;;;14.80;100.00
13934;BME280;7039;52.168;9.866;2023-10-09T04:53:31;100695.13;;;14.80;100.00
13934;BME280;7039;52.168;9.866;2023-10-09T04:56:04;100688.09;;;14.81;100.00
13934;BME280;7039;52.168;9.866;2023-10-09T04:58:40;100693.06;;;14.71;100.00
13934;BME280;7039;52.168;9.866;2023-10-09T05:01:07;100689.91;;;14.52;100.00
13934;BME280;7039;52.168;9.866;2023-10-09T05:03:41;100676.63;;;14.40;100.00
13934;BME280;7039;52.168;9.866;2023-10-09T05:06:12;100669.50;;;14.43;100.00
13934;BME280;7039;52.168;9.866;2023-10-09T05:09:09;100671.56;;;14.52;100.00
13934;BME280;7039;52.168;9.866;2023-10-09T05:11:35;100663.56;;;14.53;100.00
13934;BME280;7039;52.168;9.866;2023-10-09T05:14:19;100667.53;;;14.60;100.00
13934;BME280;7039;52.168;9.866;2023-10-09T05:16:52;100666.38;;;14.50;100.00
13934;BME280;7039;52.168;9.866;2023-10-09T05:19:26;100682.31;;;14.61;100.00
13934;BME280;7039;52.168;9.866;2023-10-09T05:22:09;100684.44;;;14.83;100.00
13934;BME280;7039;52.168;9.866;2023-10-09T05:24:42;100682.69;;;14.70;100.00
13934;BME280;7039;52.168;9.866;2023-10-09T05:27:10;100678.81;;;14.75;100.00
13934;BME280;7039;52.168;9.866;2023-10-09T05:30:07;100690.13;;;14.90;100.00
13934;BME280;7039;52.168;9.866;2023-10-09T05:32:49;100709.50;;;14.75;100.00
13934;BME280;7039;52.168;9.866;2023-10-09T05:35:21;100723.56;;;14.74;100.00
13934;BME280;7039;52.168;9.866;2023-10-09T05:37:56;100719.91;;;14.76;100.00
13934;BME280;7039;52.168;9.866;2023-10-09T05:40:29;100709.13;;;14.67;100.00
13934;BME280;7039;52.168;9.866;2023-10-09T05:42:56;100706.50;;;14.67;100.00
13934;BME280;7039;52.168;9.866;2023-10-09T05:45:28;100694.16;;;14.54;100.00
13934;BME280;7039;52.168;9.866;2023-10-09T05:48:12;100699.28;;;14.41;100.00
13934;BME280;7039;52.168;9.866;2023-10-09T05:50:56;100707.56;;;14.35;100.00
13934;BME280;7039;52.168;9.866;2023-10-09T05:53:46;100702.03;;;14.54;100.00
13934;BME280;7039;52.168;9.866;2023-10-09T05:56:37;100686.53;;;14.50;100.00
13934;BME280;7039;52.168;9.866;2023-10-09T05:59:21;100687.59;;;14.33;100.00
13934;BME280;7039;52.168;9.866;2023-10-09T06:02:05;100685.63;;;14.36;100.00
13934;BME280;7039;52.168;9.866;2023-10-09T06:05:14;100682.53;;;14.30;100.00
13934;BME280;7039;52.168;9.866;2023-10-09T06:07:54;100700.06;;;14.29;100.00
13934;BME280;7039;52.168;9.866;2023-10-09T06:10:33;100735.66;;;14.62;100.00
13934;BME280;7039;52.168;9.866;2023-10-09T06:13:07;100766.41;;;14.46;100.00
13934;BME280;7039;52.168;9.866;2023-10-09T06:15:55;100743.25;;;14.52;100.00
13934;BME280;7039;52.168;9.866;2023-10-09T06:18:46;100739.53;;;14.56;100.00
13934;BME280;7039;52.168;9.866;2023-10-09T06:21:20;100751.25;;;14.65;100.00
13934;BME280;7039;52.168;9.866;2023-10-09T06:24:06;100738.09;;;14.51;100.00
13934;BME280;7039;52.168;9.866;2023-10-09T06:26:42;100752.38;;;14.61;100.00
13934;BME280;7039;52.168;9.866;2023-10-09T06:29:33;100734.84;;;14.61;100.00
13934;BME280;7039;52.168;9.866;2023-10-09T06:32:04;100726.00;;;14.77;100.00
13934;BME280;7039;52.168;9.866;2023-10-09T06:34:52;100729.16;;;14.53;100.00
13934;BME280;7039;52.168;9.866;2023-10-09T06:37:22;100729.16;;;14.53;100.00
13934;BME280;7039;52.168;9.866;2023-10-09T06:40:03;100723.19;;;14.37;100.00
13934;BME280;7039;52.168;9.866;2023-10-09T06:42:59;100738.84;;;14.53;100.00
13934;BME280;7039;52.168;9.866;2023-10-09T06:45:34;100736.41;;;14.50;100.00
13934;BME280;7039;52.168;9.866;2023-10-09T06:48:09;100733.78;;;14.50;100.00
13934;BME280;7039;52.168;9.866;2023-10-09T06:50:55;100745.34;;;14.61;100.00
13934;BME280;7039;52.168;9.866;2023-10-09T06:53:29;100747.34;;;14.85;100.00
13934;BME280;7039;52.168;9.866;2023-10-09T06:56:24;100757.34;;;14.66;100.00
13934;BME280;7039;52.168;9.866;2023-10-09T06:59:13;100745.25;;;14.63;100.00
13934;BME280;7039;52.168;9.866;2023-10-09T07:01:47;100747.59;;;14.68;100.00
13934;BME280;7039;52.168;9.866;2023-10-09T07:04:36;100740.22;;;14.87;100.00
13934;BME280;7039;52.168;9.866;2023-10-09T07:07:13;100731.78;;;14.82;100.00
13934;BME280;7039;52.168;9.866;2023-10-09T07:09:40;100733.03;;;14.76;100.00
13934;BME280;7039;52.168;9.866;2023-10-09T07:12:08;100742.28;;;14.82;100.00
13934;BME280;7039;52.168;9.866;2023-10-09T07:14:41;100734.78;;;14.90;100.00
13934;BME280;7039;52.168;9.866;2023-10-09T07:17:24;100739.31;;;14.74;100.00
13934;BME280;7039;52.168;9.866;2023-10-09T07:20:09;100740.31;;;14.86;100.00
13934;BME280;7039;52.168;9.866;2023-10-09T07:22:37;100733.22;;;14.73;100.00
13934;BME280;7039;52.168;9.866;2023-10-09T07:25:20;100744.59;;;14.74;100.00
13934;BME280;7039;52.168;9.866;2023-10-09T07:28:06;100742.63;;;14.63;100.00
13934;BME280;7039;52.168;9.866;2023-10-09T07:30:45;100742.34;;;14.68;100.00
13934;BME280;7039;52.168;9.866;2023-10-09T07:33:11;100738.47;;;14.73;100.00
13934;BME280;7039;52.168;9.866;2023-10-09T07:35:44;100733.78;;;14.64;100.00
13934;BME280;7039;52.168;9.866;2023-10-09T07:38:14;100731.06;;;14.66;100.00
13934;BME280;7039;52.168;9.866;2023-10-09T07:40:45;100713.28;;;14.56;100.00
13934;BME280;7039;52.168;9.866;2023-10-09T07:43:21;100712.34;;;14.57;100.00
13934;BME280;7039;52.168;9.866;2023-10-09T07:45:52;100708.94;;;14.70;100.00
13934;BME280;7039;52.168;9.866;2023-10-09T07:48:36;100717.13;;;14.65;100.00
13934;BME280;7039;52.168;9.866;2023-10-09T07:51:14;100713.84;;;14.61;100.00
13934;BME280;7039;52.168;9.866;2023-10-09T07:53:39;100718.59;;;14.69;100.00
13934;BME280;7039;52.168;9.866;2023-10-09T07:56:09;100716.38;;;14.63;100.00
13934;BME280;7039;52.168;9.866;2023-10-09T07:58:39;100717.38;;;14.75;100.00
13934;BME280;7039;52.168;9.866;2023-10-09T08:01:14;100711.66;;;14.68;100.00
13934;BME280;7039;52.168;9.866;2023-10-09T08:03:48;100708.16;;;14.82;100.00
13934;BME280;7039;52.168;9.866;2023-10-09T08:06:23;100704.19;;;14.89;100.00
13934;BME280;7039;52.168;9.866;2023-10-09T08:09:05;100700.44;;;14.93;100.00
13934;BME280;7039;52.168;9.866;2023-10-09T08:11:51;100701.38;;;14.92;100.00
13934;BME280;7039;52.168;9.866;2023-10-09T08:14:59;100691.66;;;14.80;100.00
13934;BME280;7039;52.168;9.866;2023-10-09T08:17:47;100696.16;;;14.78;100.00
13934;BME280;7039;52.168;9.866;2023-10-09T08:20:16;100705.44;;;14.83;100.00
13934;BME280;7039;52.168;9.866;2023-10-09T08:22:51;100704.31;;;14.88;100.00
13934;BME280;7039;52.168;9.866;2023-10-09T08:25:18;100706.03;;;15.01;100.00
13934;BME280;7039;52.168;9.866;2023-10-09T08:27:56;100704.84;;;14.93;100.00
13934;BME280;7039;52.168;9.866;2023-10-09T08:30:23;100713.63;;;15.06;100.00
13934;BME280;7039;52.168;9.866;2023-10-09T08:32:55;100704.16;;;15.03;100.00
13934;BME280;7039;52.168;9.866;2023-10-09T08:35:28;100704.25;;;15.02;100.00
13934;BME280;7039;52.168;9.866;2023-10-09T08:37:58;100704.78;;;15.07;100.00
13934;BME280;7039;52.168;9.866;2023-10-09T08:40:30;100690.16;;;15.03;100.00
13934;BME280;7039;52.168;9.866;2023-10-09T08:43:05;100691.34;;;15.12;100.00
13934;BME280;7039;52.168;9.866;2023-10-09T08:45:37;100678.88;;;15.15;100.00
13934;BME280;7039;52.168;9.866;2023-10-09T08:48:06;100682.41;;;15.14;100.00
13934;BME280;7039;52.168;9.866;2023-10-09T08:50:33;100672.91;;;15.26;100.00
13934;BME280;7039;52.168;9.866;2023-10-09T08:53:02;100671.13;;;15.27;100.00
13934;BME280;7039;52.168;9.866;2023-10-09T08:55:29;100676.03;;;15.18;100.00
13934;BME280;7039;52.168;9.866;2023-10-09T08:57:56;100671.56;;;15.33;100.00
13934;BME280;7039;52.168;9.866;2023-10-09T09:00:24;100659.47;;;15.31;100.00
13934;BME280;7039;52.168;9.866;2023-10-09T09:02:50;100666.59;;;15.29;100.00
13934;BME280;7039;52.168;9.866;2023-10-09T09:05:20;100657.00;;;15.28;100.00
13934;BME280;7039;52.168;9.866;2023-10-09T09:07:47;100665.88;;;15.52;100.00
13934;BME280;7039;52.168;9.866;2023-10-09T09:10:14;100667.34;;;15.43;100.00
13934;BME280;7039;52.168;9.866;2023-10-09T09:12:46;100662.09;;;15.43;100.00
13934;BME280;7039;52.168;9.866;2023-10-09T09:15:19;100652.94;;;15.36;100.00
13934;BME280;7039;52.168;9.866;2023-10-09T09:17:46;100664.63;;;15.45;100.00
13934;BME280;7039;52.168;9.866;2023-10-09T09:20:23;100669.47;;;15.51;100.00
13934;BME280;7039;52.168;9.866;2023-10-09T09:23:00;100662.81;;;15.45;100.00
13934;BME280;7039;52.168;9.866;2023-10-09T09:25:39;100675.13;;;15.45;100.00
13934;BME280;7039;52.168;9.866;2023-10-09T09:28:08;100671.16;;;15.52;100.00
13934;BME280;7039;52.168;9.866;2023-10-09T09:30:38;100669.56;;;15.50;100.00
13934;BME280;7039;52.168;9.866;2023-10-09T09:33:21;100676.91;;;15.57;100.00
13934;BME280;7039;52.168;9.866;2023-10-09T09:36:00;100672.22;;;15.75;100.00
13934;BME280;7039;52.168;9.866;2023-10-09T09:38:29;100687.47;;;16.08;100.00
13934;BME280;7039;52.168;9.866;2023-10-09T09:41:07;100688.31;;;15.96;100.00
13934;BME280;7039;52.168;9.866;2023-10-09T09:43:36;100681.69;;;16.16;100.00
13934;BME280;7039;52.168;9.866;2023-10-09T09:46:06;100670.53;;;16.13;100.00
13934;BME280;7039;52.168;9.866;2023-10-09T09:48:37;100672.94;;;16.16;100.00
13934;BME280;7039;52.168;9.866;2023-10-09T09:51:11;100681.47;;;15.94;100.00
13934;BME280;7039;52.168;9.866;2023-10-09T09:53:40;100676.88;;;16.10;100.00
13934;BME280;7039;52.168;9.866;2023-10-09T09:56:07;100662.75;;;15.98;100.00
13934;BME280;7039;52.168;9.866;2023-10-09T09:58:43;100693.91;;;16.17;100.00
13934;BME280;7039;52.168;9.866;2023-10-09T10:01:13;100717.69;;;15.90;100.00
13934;BME280;7039;52.168;9.866;2023-10-09T10:03:51;100710.22;;;15.97;100.00
13934;BME280;7039;52.168;9.866;2023-10-09T10:06:23;100695.69;;;16.04;100.00
13934;BME280;7039;52.168;9.866;2023-10-09T10:08:52;100687.69;;;15.80;100.00
13934;BME280;7039;52.168;9.866;2023-10-09T10:11:41;100691.28;;;16.17;100.00
13934;BME280;7039;52.168;9.866;2023-10-09T10:14:09;100695.16;;;16.24;100.00
13934;BME280;7039;52.168;9.866;2023-10-09T10:17:01;100698.28;;;16.66;100.00
13934;BME280;7039;52.168;9.866;2023-10-09T10:19:59;100711.19;;;16.95;100.00
13934;BME280;7039;52.168;9.866;2023-10-09T10:22:31;100714.72;;;17.07;100.00
13934;BME280;7039;52.168;9.866;2023-10-09T10:24:58;100718.19;;;17.07;99.89
13934;BME280;7039;52.168;9.866;2023-10-09T10:27:29;100707.25;;;16.40;100.00
13934;BME280;7039;52.168;9.866;2023-10-09T10:30:26;100721.25;;;16.77;100.00
13934;BME280;7039;52.168;9.866;2023-10-09T10:32:57;100705.84;;;16.47;100.00
13934;BME280;7039;52.168;9.866;2023-10-09T10:35:34;100710.31;;;16.58;100.00
13934;BME280;7039;52.168;9.866;2023-10-09T10:38:31;100722.06;;;16.54;100.00
13934;BME280;7039;52.168;9.866;2023-10-09T10:41:14;100721.50;;;16.61;100.00
13934;BME280;7039;52.168;9.866;2023-10-09T10:43:43;100714.69;;;16.46;100.00
13934;BME280;7039;52.168;9.866;2023-10-09T10:46:25;100711.13;;;16.47;100.00
13934;BME280;7039;52.168;9.866;2023-10-09T10:49:00;100701.56;;;16.07;100.00
13934;BME280;7039;52.168;9.866;2023-10-09T10:51:40;100712.03;;;16.46;100.00
13934;BME280;7039;52.168;9.866;2023-10-09T10:54:21;100712.59;;;16.51;100.00
13934;BME280;7039;52.168;9.866;2023-10-09T10:57:13;100709.75;;;16.41;100.00
13934;BME280;7039;52.168;9.866;2023-10-09T10:59:45;100705.34;;;16.16;100.00
13934;BME280;7039;52.168;9.866;2023-10-09T11:02:11;100703.78;;;16.14;100.00
13934;BME280;7039;52.168;9.866;2023-10-09T11:04:48;100711.78;;;16.12;100.00
13934;BME280;7039;52.168;9.866;2023-10-09T11:07:21;100713.25;;;16.16;100.00
13934;BME280;7039;52.168;9.866;2023-10-09T11:09:55;100706.84;;;16.07;100.00
13934;BME280;7039;52.168;9.866;2023-10-09T11:12:44;100706.97;;;16.06;100.00
13934;BME280;7039;52.168;9.866;2023-10-09T11:15:41;100706.22;;;16.04;100.00
13934;BME280;7039;52.168;9.866;2023-10-09T11:18:10;100707.28;;;16.01;100.00
13934;BME280;7039;52.168;9.866;2023-10-09T11:20:48;100705.50;;;16.02;100.00
13934;BME280;7039;52.168;9.866;2023-10-09T11:23:22;100721.50;;;15.99;100.00
13934;BME280;7039;52.168;9.866;2023-10-09T11:25:56;100717.59;;;16.17;100.00
13934;BME280;7039;52.168;9.866;2023-10-09T11:28:43;100708.34;;;15.99;100.00
13934;BME280;7039;52.168;9.866;2023-10-09T11:31:14;100710.22;;;16.10;100.00
13934;BME280;7039;52.168;9.866;2023-10-09T11:33:45;100717.25;;;15.96;100.00
13934;BME280;7039;52.168;9.866;2023-10-09T11:36:11;100704.94;;;15.71;100.00
13934;BME280;7039;52.168;9.866;2023-10-09T11:38:38;100708.22;;;15.75;100.00
13934;BME280;7039;52.168;9.866;2023-10-09T11:41:16;100708.50;;;15.70;100.00
13934;BME280;7039;52.168;9.866;2023-10-09T11:43:46;100705.78;;;15.84;100.00
13934;BME280;7039;52.168;9.866;2023-10-09T11:46:19;100710.41;;;15.94;100.00
13934;BME280;7039;52.168;9.866;2023-10-09T11:49:13;100713.06;;;15.81;100.00
13934;BME280;7039;52.168;9.866;2023-10-09T11:51:52;100705.59;;;15.88;100.00
13934;BME280;7039;52.168;9.866;2023-10-09T11:54:46;100711.16;;;15.96;100.00
13934;BME280;7039;52.168;9.866;2023-10-09T11:57:15;100712.63;;;15.87;100.00
13934;BME280;7039;52.168;9.866;2023-10-09T11:59:42;100713.81;;;15.83;100.00
13934;BME280;7039;52.168;9.866;2023-10-09T12:02:10;100709.56;;;15.80;100.00
13934;BME280;7039;52.168;9.866;2023-10-09T12:04:38;100717.47;;;15.80;100.00
13934;BME280;7039;52.168;9.866;2023-10-09T12:07:07;100716.75;;;15.78;100.00
13934;BME280;7039;52.168;9.866;2023-10-09T12:09:35;100713.81;;;15.83;100.00
13934;BME280;7039;52.168;9.866;2023-10-09T12:12:03;100715.25;;;15.87;100.00
13934;BME280;7039;52.168;9.866;2023-10-09T12:14:31;100702.97;;;15.75;100.00
13934;BME280;7039;52.168;9.866;2023-10-09T12:17:00;100703.78;;;15.75;100.00
13934;BME280;7039;52.168;9.866;2023-10-09T12:19:31;100710.53;;;15.79;100.00
13934;BME280;7039;52.168;9.866;2023-10-09T12:21:57;100714.63;;;15.71;100.00
13934;BME280;7039;52.168;9.866;2023-10-09T12:24:25;100719.91;;;15.83;100.00
13934;BME280;7039;52.168;9.866;2023-10-09T12:26:54;100710.44;;;15.81;100.00
13934;BME280;7039;52.168;9.866;2023-10-09T12:29:20;100720.09;;;15.80;100.00
13934;BME280;7039;52.168;9.866;2023-10-09T12:31:49;100714.06;;;15.65;100.00
13934;BME280;7039;52.168;9.866;2023-10-09T12:34:23;100711.38;;;15.80;100.00
13934;BME280;7039;52.168;9.866;2023-10-09T12:36:52;100715.38;;;15.73;100.00
13934;BME280;7039;52.168;9.866;2023-10-09T12:39:19;100717.06;;;15.74;100.00
13934;BME280;7039;52.168;9.866;2023-10-09T12:41:45;100707.38;;;15.74;100.00
13934;BME280;7039;52.168;9.866;2023-10-09T12:44:12;100720.09;;;15.93;100.00
13934;BME280;7039;52.168;9.866;2023-10-09T12:46:40;100723.16;;;15.87;100.00
13934;BME280;7039;52.168;9.866;2023-10-09T12:49:09;100713.81;;;15.83;100.00
13934;BME280;7039;52.168;9.866;2023-10-09T12:51:36;100709.56;;;15.80;100.00
13934;BME280;7039;52.168;9.866;2023-10-09T12:54:05;100718.63;;;15.89;100.00
13934;BME280;7039;52.168;9.866;2023-10-09T12:56:32;100713.56;;;15.73;100.00
13934;BME280;7039;52.168;9.866;2023-10-09T12:59:02;100719.16;;;15.81;100.00
13934;BME280;7039;52.168;9.866;2023-10-09T13:01:30;100725.34;;;15.80;100.00
13934;BME280;7039;52.168;9.866;2023-10-09T13:03:58;100725.47;;;15.92;100.00
13934;BME280;7039;52.168;9.866;2023-10-09T13:06:26;100729.91;;;15.91;100.00
13934;BME280;7039;52.168;9.866;2023-10-09T13:08:53;100721.06;;;15.92;100.00
13934;BME280;7039;52.168;9.866;2023-10-09T13:11:25;100725.38;;;15.93;100.00
13934;BME280;7039;52.168;9.866;2023-10-09T13:13:52;100711.16;;;16.08;100.00
13934;BME280;7039;52.168;9.866;2023-10-09T13:16:19;100720.63;;;15.98;100.00
13934;BME280;7039;52.168;9.866;2023-10-09T13:18:49;100722.00;;;16.04;100.00
13934;BME280;7039;52.168;9.866;2023-10-09T13:21:17;100719.88;;;15.96;100.00
13934;BME280;7039;52.168;9.866;2023-10-09T13:23:45;100727.25;;;15.91;100.00
13934;BME280;7039;52.168;9.866;2023-10-09T13:26:13;100726.22;;;15.94;100.00
13934;BME280;7039;52.168;9.866;2023-10-09T13:28:49;100728.75;;;15.95;100.00